createdAt,value
2024-03-24T00:01:35.625Z,85.88
2024-03-24T00:11:36.188Z,85.57
2024-03-24T00:21:36.734Z,85.16
2024-03-24T00:31:37.292Z,84.33
2024-03-24T00:41:37.852Z,83.91
2024-03-24T00:51:38.411Z,83.71
2024-03-24T01:01:38.960Z,84.29
2024-03-24T01:11:39.545Z,82.64
2024-03-24T01:21:40.093Z,82.26
2024-03-24T01:31:40.663Z,83.54
2024-03-24T01:41:41.214Z,83.64
2024-03-24T01:51:41.823Z,84.06
2024-03-24T02:01:42.341Z,84.92
2024-03-24T02:11:42.939Z,85.13
2024-03-24T02:21:43.469Z,85.34
2024-03-24T02:31:44.044Z,85.89
2024-03-24T02:41:44.582Z,85.94
2024-03-24T02:51:45.142Z,86.15
2024-03-24T03:01:45.695Z,86.25
2024-03-24T03:11:46.275Z,86.25
2024-03-24T03:21:46.807Z,86.66
2024-03-24T03:31:47.365Z,86.97
2024-03-24T03:41:47.903Z,86.25
2024-03-24T03:51:48.476Z,86.76
2024-03-24T04:01:49.019Z,87.38
2024-03-24T04:11:49.604Z,86.55
2024-03-24T04:21:50.144Z,87.49
2024-03-24T04:31:57.714Z,87.18
2024-03-24T04:41:51.217Z,87.38
2024-03-24T04:51:51.757Z,87.32
2024-03-24T05:01:52.420Z,87.53
2024-03-24T05:11:52.965Z,86.87
2024-03-24T05:21:53.475Z,86.45
2024-03-24T05:31:54.018Z,85.00
2024-03-24T05:41:54.510Z,85.94
2024-03-24T05:51:55.025Z,85.79
2024-03-24T06:01:55.507Z,84.86
2024-03-24T06:11:56.015Z,83.68
2024-03-24T06:21:56.532Z,84.09
2024-03-24T06:31:57.050Z,83.64
2024-03-24T06:41:57.517Z,81.74
2024-03-24T06:51:58.021Z,81.64
2024-03-24T07:01:58.499Z,81.19
2024-03-24T07:11:59.017Z,80.15
2024-03-24T07:21:59.497Z,80.43
2024-03-24T07:32:00.004Z,77.56
2024-03-24T07:42:00.480Z,77.42
2024-03-24T07:52:00.994Z,75.91
2024-03-24T08:02:01.484Z,74.71
2024-03-24T08:12:01.995Z,72.96
2024-03-24T08:22:02.480Z,73.13
2024-03-24T08:32:02.985Z,71.65
2024-03-24T08:42:03.503Z,70.25
2024-03-24T08:52:03.995Z,67.47
2024-03-24T09:02:04.474Z,68.16
2024-03-24T09:12:04.987Z,67.92
2024-03-24T09:22:05.473Z,67.33
2024-03-24T09:32:05.994Z,71.51
2024-03-24T09:42:06.498Z,75.70
2024-03-24T09:52:07.028Z,79.86
2024-03-24T10:02:07.511Z,80.27
2024-03-24T10:12:08.010Z,82.43
2024-03-24T10:22:08.505Z,84.01
2024-03-24T10:32:17.161Z,84.88
2024-03-24T10:52:59.515Z,86.86
2024-03-24T11:02:59.996Z,89.05
2024-03-24T11:13:00.502Z,87.66
2024-03-24T11:23:01.003Z,86.63
2024-03-24T11:33:01.512Z,86.80
2024-03-24T11:43:02.007Z,88.65
2024-03-24T11:53:02.552Z,88.39
2024-03-24T12:03:03.044Z,89.52
2024-03-24T12:13:03.541Z,88.45
2024-03-24T12:23:04.033Z,87.63
2024-03-24T12:33:04.515Z,87.90
2024-03-24T12:43:05.002Z,88.37
2024-03-24T12:53:05.511Z,84.58
2024-03-24T13:03:06.004Z,85.44
2024-03-24T13:13:06.512Z,84.48
2024-03-24T13:23:06.995Z,83.14
2024-03-24T13:33:07.498Z,85.06
2024-03-24T13:43:07.988Z,83.68
2024-03-24T13:53:08.494Z,82.48
2024-03-24T14:03:08.981Z,82.69
2024-03-24T14:13:09.690Z,83.14
2024-03-24T14:23:10.166Z,83.00
2024-03-24T14:33:10.726Z,79.49
2024-03-24T14:43:11.222Z,77.10
2024-03-24T14:53:11.746Z,77.40
2024-03-24T15:03:12.233Z,73.91
2024-03-24T15:13:12.761Z,74.84
2024-03-24T15:23:13.240Z,73.95
2024-03-24T15:33:13.765Z,73.68
2024-03-24T15:43:14.272Z,73.68
2024-03-24T15:53:14.769Z,73.57
2024-03-24T16:03:15.253Z,75.38
2024-03-24T16:13:15.777Z,75.29
2024-03-24T16:23:16.483Z,75.29
2024-03-24T16:33:16.988Z,75.12
2024-03-24T16:43:24.476Z,75.12
2024-03-24T16:53:17.981Z,77.31
2024-03-24T17:03:18.465Z,82.79
2024-03-24T17:13:18.990Z,85.75
2024-03-24T17:23:19.490Z,87.34
2024-03-24T17:33:20.012Z,86.87
2024-03-24T17:43:20.519Z,87.17
2024-03-24T17:53:21.049Z,87.42
2024-03-24T18:03:21.593Z,87.93
2024-03-24T18:13:22.172Z,88.76
2024-03-24T18:23:22.718Z,88.14
2024-03-24T18:33:23.294Z,87.93
2024-03-24T18:43:23.834Z,89.17
2024-03-24T18:53:24.398Z,88.65
2024-03-24T19:03:24.960Z,88.76
2024-03-24T19:13:25.662Z,88.56
2024-03-24T19:23:26.183Z,87.63
2024-03-24T19:33:26.747Z,88.49
2024-03-24T19:43:27.298Z,90.10
2024-03-24T19:53:27.891Z,88.39
2024-03-24T20:03:28.449Z,88.70
2024-03-24T20:13:29.034Z,88.39
2024-03-24T20:23:29.588Z,89.73
2024-03-24T20:33:30.158Z,89.52
2024-03-24T20:43:30.698Z,90.04
2024-03-24T20:53:31.304Z,90.49
2024-03-24T21:03:31.845Z,90.80
2024-03-24T21:13:32.496Z,90.19
2024-03-24T21:23:32.994Z,90.80
2024-03-24T21:33:33.558Z,92.35
2024-03-24T21:43:34.108Z,93.53
2024-03-24T21:53:38.100Z,92.76
2024-03-24T22:03:35.222Z,92.66
2024-03-24T22:13:35.789Z,92.35
2024-03-24T22:23:36.322Z,92.66
2024-03-24T22:33:36.884Z,91.01
2024-03-24T22:43:44.445Z,91.58
2024-03-24T22:53:37.985Z,92.31
2024-03-24T23:03:38.537Z,93.13
2024-03-24T23:13:39.113Z,93.34
2024-03-24T23:23:39.643Z,93.75
2024-03-24T23:33:40.218Z,94.57
2024-03-24T23:43:40.766Z,94.37
2024-03-24T23:53:41.327Z,94.47
